sensor_id;sensor_type;location;lat;lon;timestamp;temperature;humidity
11264;DHT22;5689;48.798;9.070;2023-12-20T00:01:17;6.70;99.90
11264;DHT22;5689;48.798;9.070;2023-12-20T00:03:45;6.60;99.90
11264;DHT22;5689;48.798;9.070;2023-12-20T00:06:14;6.60;99.90
11264;DHT22;5689;48.798;9.070;2023-12-20T00:08:42;6.50;99.90
11264;DHT22;5689;48.798;9.070;2023-12-20T00:11:11;6.50;99.90
11264;DHT22;5689;48.798;9.070;2023-12-20T00:13:39;6.40;99.90
11264;DHT22;5689;48.798;9.070;2023-12-20T00:16:07;6.40;99.90
11264;DHT22;5689;48.798;9.070;2023-12-20T00:18:36;6.40;99.90
11264;DHT22;5689;48.798;9.070;2023-12-20T00:21:04;6.40;99.90
11264;DHT22;5689;48.798;9.070;2023-12-20T00:23:34;6.40;99.90
11264;DHT22;5689;48.798;9.070;2023-12-20T00:26:02;6.40;99.90
11264;DHT22;5689;48.798;9.070;2023-12-20T00:28:31;6.30;99.90
11264;DHT22;5689;48.798;9.070;2023-12-20T00:30:59;6.30;99.90
11264;DHT22;5689;48.798;9.070;2023-12-20T00:33:27;6.30;99.90
11264;DHT22;5689;48.798;9.070;2023-12-20T00:35:56;6.30;99.90
11264;DHT22;5689;48.798;9.070;2023-12-20T00:38:24;6.20;99.90
11264;DHT22;5689;48.798;9.070;2023-12-20T00:40:53;6.80;99.90
11264;DHT22;5689;48.798;9.070;2023-12-20T00:43:22;6.20;99.90
11264;DHT22;5689;48.798;9.070;2023-12-20T00:45:51;6.20;99.90
11264;DHT22;5689;48.798;9.070;2023-12-20T00:48:19;6.10;99.90
11264;DHT22;5689;48.798;9.070;2023-12-20T00:50:47;6.10;99.90
11264;DHT22;5689;48.798;9.070;2023-12-20T00:53:15;6.10;99.90
11264;DHT22;5689;48.798;9.070;2023-12-20T00:55:44;6.10;99.90
11264;DHT22;5689;48.798;9.070;2023-12-20T00:58:14;6.00;99.90
11264;DHT22;5689;48.798;9.070;2023-12-20T01:00:42;6.00;99.90
11264;DHT22;5689;48.798;9.070;2023-12-20T01:03:11;6.00;99.90
11264;DHT22;5689;48.798;9.070;2023-12-20T01:05:39;6.00;99.90
11264;DHT22;5689;48.798;9.070;2023-12-20T01:08:07;6.00;99.90
11264;DHT22;5689;48.798;9.070;2023-12-20T01:10:35;5.90;99.90
11264;DHT22;5689;48.798;9.070;2023-12-20T01:13:03;5.90;99.90
11264;DHT22;5689;48.798;9.070;2023-12-20T01:15:33;5.90;99.90
11264;DHT22;5689;48.798;9.070;2023-12-20T01:18:01;5.90;99.90
11264;DHT22;5689;48.798;9.070;2023-12-20T01:20:29;5.90;99.90
11264;DHT22;5689;48.798;9.070;2023-12-20T01:22:58;5.80;99.90
11264;DHT22;5689;48.798;9.070;2023-12-20T01:25:26;5.80;99.90
11264;DHT22;5689;48.798;9.070;2023-12-20T01:27:54;5.80;99.90
11264;DHT22;5689;48.798;9.070;2023-12-20T01:30:22;5.90;99.90
11264;DHT22;5689;48.798;9.070;2023-12-20T01:32:52;5.90;99.90
11264;DHT22;5689;48.798;9.070;2023-12-20T01:35:21;5.90;99.90
11264;DHT22;5689;48.798;9.070;2023-12-20T01:37:49;5.90;99.90
11264;DHT22;5689;48.798;9.070;2023-12-20T01:40:16;6.00;99.90
11264;DHT22;5689;48.798;9.070;2023-12-20T01:42:45;6.00;99.90
11264;DHT22;5689;48.798;9.070;2023-12-20T01:45:13;6.00;99.90
11264;DHT22;5689;48.798;9.070;2023-12-20T01:47:41;6.10;99.90
11264;DHT22;5689;48.798;9.070;2023-12-20T01:50:11;6.10;99.90
11264;DHT22;5689;48.798;9.070;2023-12-20T01:52:41;6.10;99.90
11264;DHT22;5689;48.798;9.070;2023-12-20T01:55:09;6.00;99.90
11264;DHT22;5689;48.798;9.070;2023-12-20T01:57:42;6.10;99.90
11264;DHT22;5689;48.798;9.070;2023-12-20T02:00:12;6.20;99.90
11264;DHT22;5689;48.798;9.070;2023-12-20T02:02:41;6.20;99.90
11264;DHT22;5689;48.798;9.070;2023-12-20T02:05:09;6.30;99.90
11264;DHT22;5689;48.798;9.070;2023-12-20T02:07:39;6.20;99.90
11264;DHT22;5689;48.798;9.070;2023-12-20T02:10:08;6.20;99.90
11264;DHT22;5689;48.798;9.070;2023-12-20T02:12:36;6.30;99.90
11264;DHT22;5689;48.798;9.070;2023-12-20T02:15:05;6.20;99.90
11264;DHT22;5689;48.798;9.070;2023-12-20T02:17:34;6.20;99.90
11264;DHT22;5689;48.798;9.070;2023-12-20T02:20:02;6.30;99.90
11264;DHT22;5689;48.798;9.070;2023-12-20T02:22:32;6.20;99.90
11264;DHT22;5689;48.798;9.070;2023-12-20T02:25:00;6.20;99.90
11264;DHT22;5689;48.798;9.070;2023-12-20T02:27:29;6.30;99.90
11264;DHT22;5689;48.798;9.070;2023-12-20T02:29:57;6.10;99.90
11264;DHT22;5689;48.798;9.070;2023-12-20T02:32:25;6.00;99.90
11264;DHT22;5689;48.798;9.070;2023-12-20T02:34:55;5.90;99.90
11264;DHT22;5689;48.798;9.070;2023-12-20T02:37:23;5.90;99.90
11264;DHT22;5689;48.798;9.070;2023-12-20T02:39:52;6.00;99.90
11264;DHT22;5689;48.798;9.070;2023-12-20T02:42:21;6.00;99.90
11264;DHT22;5689;48.798;9.070;2023-12-20T02:44:49;6.10;99.90
11264;DHT22;5689;48.798;9.070;2023-12-20T02:47:17;6.20;99.90
11264;DHT22;5689;48.798;9.070;2023-12-20T02:49:45;6.20;99.90
11264;DHT22;5689;48.798;9.070;2023-12-20T02:52:13;6.00;99.90
11264;DHT22;5689;48.798;9.070;2023-12-20T02:54:42;6.00;99.90
11264;DHT22;5689;48.798;9.070;2023-12-20T02:57:12;6.00;99.90
11264;DHT22;5689;48.798;9.070;2023-12-20T02:59:40;5.90;99.90
11264;DHT22;5689;48.798;9.070;2023-12-20T03:02:08;5.80;99.90
11264;DHT22;5689;48.798;9.070;2023-12-20T03:04:37;5.80;99.90
11264;DHT22;5689;48.798;9.070;2023-12-20T03:07:05;5.70;99.90
11264;DHT22;5689;48.798;9.070;2023-12-20T03:09:33;5.70;99.90
11264;DHT22;5689;48.798;9.070;2023-12-20T03:12:05;5.70;99.90
11264;DHT22;5689;48.798;9.070;2023-12-20T03:14:34;5.70;99.90
11264;DHT22;5689;48.798;9.070;2023-12-20T03:17:03;5.80;99.90
11264;DHT22;5689;48.798;9.070;2023-12-20T03:19:31;5.80;99.90
11264;DHT22;5689;48.798;9.070;2023-12-20T03:21:59;5.80;99.90
11264;DHT22;5689;48.798;9.070;2023-12-20T03:24:28;5.80;99.90
11264;DHT22;5689;48.798;9.070;2023-12-20T03:26:56;5.70;99.90
11264;DHT22;5689;48.798;9.070;2023-12-20T03:29:24;5.70;99.90
11264;DHT22;5689;48.798;9.070;2023-12-20T03:31:53;5.70;99.90
11264;DHT22;5689;48.798;9.070;2023-12-20T03:34:22;5.70;99.90
11264;DHT22;5689;48.798;9.070;2023-12-20T03:36:50;5.70;99.90
11264;DHT22;5689;48.798;9.070;2023-12-20T03:39:18;5.60;99.90
11264;DHT22;5689;48.798;9.070;2023-12-20T03:41:47;5.60;99.90
11264;DHT22;5689;48.798;9.070;2023-12-20T03:44:15;5.50;99.90
11264;DHT22;5689;48.798;9.070;2023-12-20T03:46:43;5.50;99.90
11264;DHT22;5689;48.798;9.070;2023-12-20T03:49:13;5.40;99.90
11264;DHT22;5689;48.798;9.070;2023-12-20T03:51:42;5.40;99.90
11264;DHT22;5689;48.798;9.070;2023-12-20T03:54:13;5.40;99.90
11264;DHT22;5689;48.798;9.070;2023-12-20T03:56:41;5.30;99.90
11264;DHT22;5689;48.798;9.070;2023-12-20T03:59:09;6.50;99.90
11264;DHT22;5689;48.798;9.070;2023-12-20T04:01:38;5.30;99.90
11264;DHT22;5689;48.798;9.070;2023-12-20T04:04:06;5.40;99.90
11264;DHT22;5689;48.798;9.070;2023-12-20T04:06:36;5.40;99.90
11264;DHT22;5689;48.798;9.070;2023-12-20T04:09:05;5.40;99.90
11264;DHT22;5689;48.798;9.070;2023-12-20T04:11:36;5.30;99.90
11264;DHT22;5689;48.798;9.070;2023-12-20T04:14:04;5.40;99.90
11264;DHT22;5689;48.798;9.070;2023-12-20T04:16:34;5.50;99.90
11264;DHT22;5689;48.798;9.070;2023-12-20T04:19:02;5.40;99.90
11264;DHT22;5689;48.798;9.070;2023-12-20T04:21:32;5.40;99.90
11264;DHT22;5689;48.798;9.070;2023-12-20T04:24:05;5.40;99.90
11264;DHT22;5689;48.798;9.070;2023-12-20T04:26:34;5.30;99.90
11264;DHT22;5689;48.798;9.070;2023-12-20T04:29:02;5.30;99.90
11264;DHT22;5689;48.798;9.070;2023-12-20T04:31:31;5.40;99.90
11264;DHT22;5689;48.798;9.070;2023-12-20T04:33:59;5.30;99.90
11264;DHT22;5689;48.798;9.070;2023-12-20T04:36:27;5.30;99.90
11264;DHT22;5689;48.798;9.070;2023-12-20T04:38:56;5.30;99.90
11264;DHT22;5689;48.798;9.070;2023-12-20T04:41:28;5.30;99.90
11264;DHT22;5689;48.798;9.070;2023-12-20T04:43:57;5.30;99.90
11264;DHT22;5689;48.798;9.070;2023-12-20T04:46:25;5.30;99.90
11264;DHT22;5689;48.798;9.070;2023-12-20T04:48:54;5.30;99.90
11264;DHT22;5689;48.798;9.070;2023-12-20T04:51:23;5.30;99.90
11264;DHT22;5689;48.798;9.070;2023-12-20T04:53:51;5.30;99.90
11264;DHT22;5689;48.798;9.070;2023-12-20T04:56:20;5.30;99.90
11264;DHT22;5689;48.798;9.070;2023-12-20T04:58:49;5.30;99.90
11264;DHT22;5689;48.798;9.070;2023-12-20T05:01:18;5.20;99.90
11264;DHT22;5689;48.798;9.070;2023-12-20T05:03:47;5.20;99.90
11264;DHT22;5689;48.798;9.070;2023-12-20T05:06:15;5.20;99.90
11264;DHT22;5689;48.798;9.070;2023-12-20T05:08:44;5.20;99.90
11264;DHT22;5689;48.798;9.070;2023-12-20T05:11:12;5.30;99.90
11264;DHT22;5689;48.798;9.070;2023-12-20T05:13:41;5.30;99.90
11264;DHT22;5689;48.798;9.070;2023-12-20T05:16:12;5.30;99.90
11264;DHT22;5689;48.798;9.070;2023-12-20T05:18:41;5.30;99.90
11264;DHT22;5689;48.798;9.070;2023-12-20T05:21:09;5.30;99.90
11264;DHT22;5689;48.798;9.070;2023-12-20T05:23:39;5.30;99.90
11264;DHT22;5689;48.798;9.070;2023-12-20T05:26:07;5.50;99.90
11264;DHT22;5689;48.798;9.070;2023-12-20T05:28:36;5.30;99.90
11264;DHT22;5689;48.798;9.070;2023-12-20T05:31:04;5.30;99.90
11264;DHT22;5689;48.798;9.070;2023-12-20T05:33:35;5.30;99.90
11264;DHT22;5689;48.798;9.070;2023-12-20T05:36:04;5.40;99.90
11264;DHT22;5689;48.798;9.070;2023-12-20T05:38:38;5.40;99.90
11264;DHT22;5689;48.798;9.070;2023-12-20T05:41:06;5.40;99.90
11264;DHT22;5689;48.798;9.070;2023-12-20T05:43:35;5.40;99.90
11264;DHT22;5689;48.798;9.070;2023-12-20T05:46:03;5.40;99.90
11264;DHT22;5689;48.798;9.070;2023-12-20T05:48:32;5.40;99.90
11264;DHT22;5689;48.798;9.070;2023-12-20T05:51:01;5.40;99.90
11264;DHT22;5689;48.798;9.070;2023-12-20T05:53:30;5.30;99.90
11264;DHT22;5689;48.798;9.070;2023-12-20T05:55:59;5.30;99.90
11264;DHT22;5689;48.798;9.070;2023-12-20T05:58:28;5.40;99.90
11264;DHT22;5689;48.798;9.070;2023-12-20T06:00:57;5.40;99.90
11264;DHT22;5689;48.798;9.070;2023-12-20T06:03:28;5.50;99.90
11264;DHT22;5689;48.798;9.070;2023-12-20T06:05:57;5.40;99.90
11264;DHT22;5689;48.798;9.070;2023-12-20T06:08:30;5.50;99.90
11264;DHT22;5689;48.798;9.070;2023-12-20T06:10:59;5.50;99.90
11264;DHT22;5689;48.798;9.070;2023-12-20T06:13:27;5.50;99.90
11264;DHT22;5689;48.798;9.070;2023-12-20T06:15:56;5.50;99.90
11264;DHT22;5689;48.798;9.070;2023-12-20T06:18:25;4.80;99.90
11264;DHT22;5689;48.798;9.070;2023-12-20T06:20:55;6.10;99.90
11264;DHT22;5689;48.798;9.070;2023-12-20T06:23:24;5.60;99.90
11264;DHT22;5689;48.798;9.070;2023-12-20T06:25:54;5.60;99.90
11264;DHT22;5689;48.798;9.070;2023-12-20T06:28:23;5.50;99.90
11264;DHT22;5689;48.798;9.070;2023-12-20T06:30:51;5.60;99.90
11264;DHT22;5689;48.798;9.070;2023-12-20T06:33:21;5.60;99.90
11264;DHT22;5689;48.798;9.070;2023-12-20T06:35:51;5.60;99.90
11264;DHT22;5689;48.798;9.070;2023-12-20T06:38:20;5.50;99.90
11264;DHT22;5689;48.798;9.070;2023-12-20T06:40:49;5.60;99.90
11264;DHT22;5689;48.798;9.070;2023-12-20T06:43:21;5.60;99.90
11264;DHT22;5689;48.798;9.070;2023-12-20T06:45:52;5.50;99.90
11264;DHT22;5689;48.798;9.070;2023-12-20T06:48:20;5.50;99.90
11264;DHT22;5689;48.798;9.070;2023-12-20T06:50:49;5.60;99.90
11264;DHT22;5689;48.798;9.070;2023-12-20T06:53:18;5.60;99.90
11264;DHT22;5689;48.798;9.070;2023-12-20T06:55:46;5.60;99.90
11264;DHT22;5689;48.798;9.070;2023-12-20T06:58:14;5.60;99.90
11264;DHT22;5689;48.798;9.070;2023-12-20T07:00:46;5.70;99.90
11264;DHT22;5689;48.798;9.070;2023-12-20T07:03:15;6.10;99.90
11264;DHT22;5689;48.798;9.070;2023-12-20T07:05:43;5.80;99.90
11264;DHT22;5689;48.798;9.070;2023-12-20T07:08:12;5.60;99.90
11264;DHT22;5689;48.798;9.070;2023-12-20T07:10:42;5.70;99.90
11264;DHT22;5689;48.798;9.070;2023-12-20T07:13:11;5.50;99.90
11264;DHT22;5689;48.798;9.070;2023-12-20T07:15:42;5.60;99.90
11264;DHT22;5689;48.798;9.070;2023-12-20T07:18:13;5.60;99.90
11264;DHT22;5689;48.798;9.070;2023-12-20T07:20:42;6.20;99.90
11264;DHT22;5689;48.798;9.070;2023-12-20T07:23:12;5.50;99.90
11264;DHT22;5689;48.798;9.070;2023-12-20T07:25:40;4.90;99.90
11264;DHT22;5689;48.798;9.070;2023-12-20T07:28:09;5.80;99.90
11264;DHT22;5689;48.798;9.070;2023-12-20T07:30:40;5.40;99.90
11264;DHT22;5689;48.798;9.070;2023-12-20T07:33:14;5.40;99.90
11264;DHT22;5689;48.798;9.070;2023-12-20T07:35:48;5.30;99.90
11264;DHT22;5689;48.798;9.070;2023-12-20T07:38:18;5.70;99.90
11264;DHT22;5689;48.798;9.070;2023-12-20T07:41:16;5.30;99.90
11264;DHT22;5689;48.798;9.070;2023-12-20T07:43:48;5.30;99.90
11264;DHT22;5689;48.798;9.070;2023-12-20T07:46:17;5.20;99.90
11264;DHT22;5689;48.798;9.070;2023-12-20T07:48:51;5.20;99.90
11264;DHT22;5689;48.798;9.070;2023-12-20T07:51:23;5.10;99.90
11264;DHT22;5689;48.798;9.070;2023-12-20T07:53:52;5.00;99.90
11264;DHT22;5689;48.798;9.070;2023-12-20T07:56:21;5.00;99.90
11264;DHT22;5689;48.798;9.070;2023-12-20T07:58:49;5.00;99.90
11264;DHT22;5689;48.798;9.070;2023-12-20T08:01:18;6.00;99.90
11264;DHT22;5689;48.798;9.070;2023-12-20T08:03:47;4.80;99.90
11264;DHT22;5689;48.798;9.070;2023-12-20T08:06:18;4.90;99.90
11264;DHT22;5689;48.798;9.070;2023-12-20T08:08:47;5.70;99.90
11264;DHT22;5689;48.798;9.070;2023-12-20T08:11:16;4.40;99.90
11264;DHT22;5689;48.798;9.070;2023-12-20T08:13:48;4.90;99.90
11264;DHT22;5689;48.798;9.070;2023-12-20T08:16:17;5.00;99.90
11264;DHT22;5689;48.798;9.070;2023-12-20T08:18:47;5.00;99.90
11264;DHT22;5689;48.798;9.070;2023-12-20T08:21:17;5.00;99.90
11264;DHT22;5689;48.798;9.070;2023-12-20T08:23:47;5.10;99.90
11264;DHT22;5689;48.798;9.070;2023-12-20T08:26:19;5.00;99.90
11264;DHT22;5689;48.798;9.070;2023-12-20T08:28:49;5.80;99.90
11264;DHT22;5689;48.798;9.070;2023-12-20T08:31:18;4.90;99.90
11264;DHT22;5689;48.798;9.070;2023-12-20T08:33:48;4.80;99.90
11264;DHT22;5689;48.798;9.070;2023-12-20T08:36:19;4.90;99.90
11264;DHT22;5689;48.798;9.070;2023-12-20T08:38:48;4.90;99.90
11264;DHT22;5689;48.798;9.070;2023-12-20T08:41:17;4.90;99.90
11264;DHT22;5689;48.798;9.070;2023-12-20T08:43:47;4.90;99.90
11264;DHT22;5689;48.798;9.070;2023-12-20T08:46:16;4.80;99.90
11264;DHT22;5689;48.798;9.070;2023-12-20T08:48:47;4.70;99.90
11264;DHT22;5689;48.798;9.070;2023-12-20T08:51:17;4.70;99.90
11264;DHT22;5689;48.798;9.070;2023-12-20T08:53:46;4.80;99.90
11264;DHT22;5689;48.798;9.070;2023-12-20T08:56:15;5.00;99.90
11264;DHT22;5689;48.798;9.070;2023-12-20T08:58:48;4.90;99.90
11264;DHT22;5689;48.798;9.070;2023-12-20T09:01:19;4.90;99.90
11264;DHT22;5689;48.798;9.070;2023-12-20T09:03:49;5.00;99.90
11264;DHT22;5689;48.798;9.070;2023-12-20T09:06:30;4.90;99.90
11264;DHT22;5689;48.798;9.070;2023-12-20T09:09:00;4.90;99.90
11264;DHT22;5689;48.798;9.070;2023-12-20T09:11:32;5.00;99.90
11264;DHT22;5689;48.798;9.070;2023-12-20T09:14:01;5.00;99.90
11264;DHT22;5689;48.798;9.070;2023-12-20T09:16:32;5.10;99.90
11264;DHT22;5689;48.798;9.070;2023-12-20T09:19:01;5.10;99.90
11264;DHT22;5689;48.798;9.070;2023-12-20T09:21:31;5.20;99.90
11264;DHT22;5689;48.798;9.070;2023-12-20T09:23:59;5.20;99.90
11264;DHT22;5689;48.798;9.070;2023-12-20T09:26:27;5.20;99.90
11264;DHT22;5689;48.798;9.070;2023-12-20T09:28:58;5.20;99.90
11264;DHT22;5689;48.798;9.070;2023-12-20T09:31:27;5.40;99.90
11264;DHT22;5689;48.798;9.070;2023-12-20T09:33:58;5.40;99.90
11264;DHT22;5689;48.798;9.070;2023-12-20T09:36:27;5.50;99.90
11264;DHT22;5689;48.798;9.070;2023-12-20T09:39:01;5.50;99.90
11264;DHT22;5689;48.798;9.070;2023-12-20T09:41:32;7.00;99.90
11264;DHT22;5689;48.798;9.070;2023-12-20T09:44:06;6.00;99.90
11264;DHT22;5689;48.798;9.070;2023-12-20T09:46:38;6.20;99.90
11264;DHT22;5689;48.798;9.070;2023-12-20T09:49:11;5.90;99.90
11264;DHT22;5689;48.798;9.070;2023-12-20T09:51:49;5.90;99.90
11264;DHT22;5689;48.798;9.070;2023-12-20T09:54:20;5.90;99.90
11264;DHT22;5689;48.798;9.070;2023-12-20T09:56:49;6.20;99.90
11264;DHT22;5689;48.798;9.070;2023-12-20T09:59:19;6.70;99.90
11264;DHT22;5689;48.798;9.070;2023-12-20T10:01:51;6.80;99.90
11264;DHT22;5689;48.798;9.070;2023-12-20T10:04:24;7.40;99.90
11264;DHT22;5689;48.798;9.070;2023-12-20T10:06:55;8.10;99.90
11264;DHT22;5689;48.798;9.070;2023-12-20T10:09:31;7.30;99.90
11264;DHT22;5689;48.798;9.070;2023-12-20T10:12:02;7.10;99.90
11264;DHT22;5689;48.798;9.070;2023-12-20T10:14:33;6.50;99.90
11264;DHT22;5689;48.798;9.070;2023-12-20T10:17:03;6.20;99.90
11264;DHT22;5689;48.798;9.070;2023-12-20T10:19:34;6.30;99.90
11264;DHT22;5689;48.798;9.070;2023-12-20T10:22:04;7.20;99.90
11264;DHT22;5689;48.798;9.070;2023-12-20T10:24:34;6.20;99.90
11264;DHT22;5689;48.798;9.070;2023-12-20T10:27:04;5.90;99.90
11264;DHT22;5689;48.798;9.070;2023-12-20T10:29:33;6.40;99.90
11264;DHT22;5689;48.798;9.070;2023-12-20T10:32:23;6.90;99.90
11264;DHT22;5689;48.798;9.070;2023-12-20T10:34:54;6.10;99.90
11264;DHT22;5689;48.798;9.070;2023-12-20T10:37:23;5.50;99.90
11264;DHT22;5689;48.798;9.070;2023-12-20T10:39:53;7.40;99.90
11264;DHT22;5689;48.798;9.070;2023-12-20T10:42:26;6.00;99.90
11264;DHT22;5689;48.798;9.070;2023-12-20T10:44:58;6.90;99.90
11264;DHT22;5689;48.798;9.070;2023-12-20T10:47:28;6.40;99.90
11264;DHT22;5689;48.798;9.070;2023-12-20T10:50:21;6.00;99.90
11264;DHT22;5689;48.798;9.070;2023-12-20T10:53:07;5.80;99.90
11264;DHT22;5689;48.798;9.070;2023-12-20T10:55:46;5.90;99.90
11264;DHT22;5689;48.798;9.070;2023-12-20T10:58:43;6.10;99.90
11264;DHT22;5689;48.798;9.070;2023-12-20T11:01:14;6.30;99.90
11264;DHT22;5689;48.798;9.070;2023-12-20T11:03:49;7.10;99.90
11264;DHT22;5689;48.798;9.070;2023-12-20T11:06:29;6.30;99.90
11264;DHT22;5689;48.798;9.070;2023-12-20T11:09:10;6.60;99.90
11264;DHT22;5689;48.798;9.070;2023-12-20T11:11:56;6.90;99.90
11264;DHT22;5689;48.798;9.070;2023-12-20T11:14:38;6.10;99.90
11264;DHT22;5689;48.798;9.070;2023-12-20T11:17:11;6.20;99.90
11264;DHT22;5689;48.798;9.070;2023-12-20T11:20:07;6.00;99.90
11264;DHT22;5689;48.798;9.070;2023-12-20T11:22:40;6.00;99.90
11264;DHT22;5689;48.798;9.070;2023-12-20T11:25:21;6.00;99.90
11264;DHT22;5689;48.798;9.070;2023-12-20T11:28:20;5.90;99.90
11264;DHT22;5689;48.798;9.070;2023-12-20T11:30:53;6.10;99.90
11264;DHT22;5689;48.798;9.070;2023-12-20T11:33:25;5.90;99.90
11264;DHT22;5689;48.798;9.070;2023-12-20T11:35:56;6.00;99.90
11264;DHT22;5689;48.798;9.070;2023-12-20T11:38:27;6.00;99.90
11264;DHT22;5689;48.798;9.070;2023-12-20T11:40:59;6.20;99.90
11264;DHT22;5689;48.798;9.070;2023-12-20T11:43:38;6.20;99.90
11264;DHT22;5689;48.798;9.070;2023-12-20T11:46:08;6.10;99.90
11264;DHT22;5689;48.798;9.070;2023-12-20T11:48:44;5.90;99.90
11264;DHT22;5689;48.798;9.070;2023-12-20T11:51:13;5.90;99.90
11264;DHT22;5689;48.798;9.070;2023-12-20T11:53:42;6.00;99.90
11264;DHT22;5689;48.798;9.070;2023-12-20T11:56:10;5.90;99.90
11264;DHT22;5689;48.798;9.070;2023-12-20T11:58:40;6.00;99.90
11264;DHT22;5689;48.798;9.070;2023-12-20T12:01:09;5.90;99.90
11264;DHT22;5689;48.798;9.070;2023-12-20T12:03:37;6.00;99.90
11264;DHT22;5689;48.798;9.070;2023-12-20T12:06:05;6.00;99.90
11264;DHT22;5689;48.798;9.070;2023-12-20T12:08:35;6.20;99.90
11264;DHT22;5689;48.798;9.070;2023-12-20T12:11:03;6.10;99.90
11264;DHT22;5689;48.798;9.070;2023-12-20T12:13:31;6.40;99.90
11264;DHT22;5689;48.798;9.070;2023-12-20T12:16:01;6.70;99.90
11264;DHT22;5689;48.798;9.070;2023-12-20T12:18:29;6.80;99.90
11264;DHT22;5689;48.798;9.070;2023-12-20T12:21:00;6.60;99.90
11264;DHT22;5689;48.798;9.070;2023-12-20T12:23:30;6.90;99.90
11264;DHT22;5689;48.798;9.070;2023-12-20T12:25:58;7.00;99.90
11264;DHT22;5689;48.798;9.070;2023-12-20T12:28:26;7.10;99.90
11264;DHT22;5689;48.798;9.070;2023-12-20T12:30:56;7.20;99.90
11264;DHT22;5689;48.798;9.070;2023-12-20T12:33:26;7.30;99.90
11264;DHT22;5689;48.798;9.070;2023-12-20T12:35:55;7.00;99.90
11264;DHT22;5689;48.798;9.070;2023-12-20T12:38:24;6.80;99.90
11264;DHT22;5689;48.798;9.070;2023-12-20T12:40:52;7.10;99.90
11264;DHT22;5689;48.798;9.070;2023-12-20T12:43:20;7.00;99.90
11264;DHT22;5689;48.798;9.070;2023-12-20T12:45:49;7.00;99.90
11264;DHT22;5689;48.798;9.070;2023-12-20T12:48:17;6.80;99.90
11264;DHT22;5689;48.798;9.070;2023-12-20T12:50:46;6.60;99.90
11264;DHT22;5689;48.798;9.070;2023-12-20T12:53:14;6.60;99.90
11264;DHT22;5689;48.798;9.070;2023-12-20T12:55:43;6.80;99.90
11264;DHT22;5689;48.798;9.070;2023-12-20T12:58:11;6.50;99.90
11264;DHT22;5689;48.798;9.070;2023-12-20T13:00:39;6.60;99.90
11264;DHT22;5689;48.798;9.070;2023-12-20T13:03:09;6.40;99.90
11264;DHT22;5689;48.798;9.070;2023-12-20T13:05:37;6.30;99.90
11264;DHT22;5689;48.798;9.070;2023-12-20T13:08:07;6.40;99.90
11264;DHT22;5689;48.798;9.070;2023-12-20T13:10:36;6.50;99.90
11264;DHT22;5689;48.798;9.070;2023-12-20T13:13:04;6.60;99.90
11264;DHT22;5689;48.798;9.070;2023-12-20T13:15:32;6.40;99.90
11264;DHT22;5689;48.798;9.070;2023-12-20T13:18:00;6.40;99.90
11264;DHT22;5689;48.798;9.070;2023-12-20T13:20:29;6.30;99.90
11264;DHT22;5689;48.798;9.070;2023-12-20T13:22:57;6.50;99.90
11264;DHT22;5689;48.798;9.070;2023-12-20T13:25:27;6.80;99.90
11264;DHT22;5689;48.798;9.070;2023-12-20T13:27:55;7.10;99.90
11264;DHT22;5689;48.798;9.070;2023-12-20T13:30:23;7.30;99.90
11264;DHT22;5689;48.798;9.070;2023-12-20T13:32:51;7.20;99.90
11264;DHT22;5689;48.798;9.070;2023-12-20T13:35:19;7.30;99.90
11264;DHT22;5689;48.798;9.070;2023-12-20T13:37:47;7.20;99.90
11264;DHT22;5689;48.798;9.070;2023-12-20T13:40:16;6.80;99.90
11264;DHT22;5689;48.798;9.070;2023-12-20T13:42:46;6.50;99.90
11264;DHT22;5689;48.798;9.070;2023-12-20T13:45:15;6.30;99.90
11264;DHT22;5689;48.798;9.070;2023-12-20T13:47:43;6.30;99.90
11264;DHT22;5689;48.798;9.070;2023-12-20T13:50:11;6.20;99.90
11264;DHT22;5689;48.798;9.070;2023-12-20T13:52:39;6.20;99.90
11264;DHT22;5689;48.798;9.070;2023-12-20T13:55:08;6.30;99.90
11264;DHT22;5689;48.798;9.070;2023-12-20T13:57:37;6.30;99.90
11264;DHT22;5689;48.798;9.070;2023-12-20T14:00:12;6.20;99.90
11264;DHT22;5689;48.798;9.070;2023-12-20T14:02:41;6.20;99.90
11264;DHT22;5689;48.798;9.070;2023-12-20T14:05:09;6.10;99.90
11264;DHT22;5689;48.798;9.070;2023-12-20T14:07:38;6.30;99.90
11264;DHT22;5689;48.798;9.070;2023-12-20T14:10:06;6.20;99.90
11264;DHT22;5689;48.798;9.070;2023-12-20T14:12:36;6.20;99.90
11264;DHT22;5689;48.798;9.070;2023-12-20T14:15:05;6.00;99.90
11264;DHT22;5689;48.798;9.070;2023-12-20T14:17:37;6.00;99.90
11264;DHT22;5689;48.798;9.070;2023-12-20T14:20:06;6.00;99.90
11264;DHT22;5689;48.798;9.070;2023-12-20T14:22:35;6.10;99.90
11264;DHT22;5689;48.798;9.070;2023-12-20T14:25:06;6.10;99.90
11264;DHT22;5689;48.798;9.070;2023-12-20T14:27:35;6.10;99.90
11264;DHT22;5689;48.798;9.070;2023-12-20T14:30:04;5.90;99.90
11264;DHT22;5689;48.798;9.070;2023-12-20T14:32:36;5.90;99.90
11264;DHT22;5689;48.798;9.070;2023-12-20T14:35:06;5.70;99.90
11264;DHT22;5689;48.798;9.070;2023-12-20T14:37:35;5.50;99.90
11264;DHT22;5689;48.798;9.070;2023-12-20T14:40:06;5.60;99.90
11264;DHT22;5689;48.798;9.070;2023-12-20T14:42:37;5.50;99.90
11264;DHT22;5689;48.798;9.070;2023-12-20T14:45:06;5.60;99.90
11264;DHT22;5689;48.798;9.070;2023-12-20T14:47:35;5.60;99.90
11264;DHT22;5689;48.798;9.070;2023-12-20T14:50:06;5.70;99.90
11264;DHT22;5689;48.798;9.070;2023-12-20T14:52:34;5.70;99.90
11264;DHT22;5689;48.798;9.070;2023-12-20T14:55:04;5.60;99.90
11264;DHT22;5689;48.798;9.070;2023-12-20T14:57:32;5.70;99.90
11264;DHT22;5689;48.798;9.070;2023-12-20T15:00:00;5.60;99.90
11264;DHT22;5689;48.798;9.070;2023-12-20T15:02:28;5.60;99.90
11264;DHT22;5689;48.798;9.070;2023-12-20T15:04:58;5.70;99.90
11264;DHT22;5689;48.798;9.070;2023-12-20T15:07:27;5.70;99.90
11264;DHT22;5689;48.798;9.070;2023-12-20T15:09:55;5.70;99.90
11264;DHT22;5689;48.798;9.070;2023-12-20T15:12:23;5.70;99.90
11264;DHT22;5689;48.798;9.070;2023-12-20T15:14:52;5.60;99.90
11264;DHT22;5689;48.798;9.070;2023-12-20T15:17:20;5.70;99.90
11264;DHT22;5689;48.798;9.070;2023-12-20T15:19:48;5.60;99.90
11264;DHT22;5689;48.798;9.070;2023-12-20T15:22:16;5.60;99.90
11264;DHT22;5689;48.798;9.070;2023-12-20T15:24:45;5.70;99.90
11264;DHT22;5689;48.798;9.070;2023-12-20T15:27:14;5.80;99.90
11264;DHT22;5689;48.798;9.070;2023-12-20T15:29:43;5.80;99.90
11264;DHT22;5689;48.798;9.070;2023-12-20T15:32:11;5.80;99.90
11264;DHT22;5689;48.798;9.070;2023-12-20T15:34:39;5.80;99.90
11264;DHT22;5689;48.798;9.070;2023-12-20T15:37:07;5.80;99.90
11264;DHT22;5689;48.798;9.070;2023-12-20T15:39:36;5.70;99.90
11264;DHT22;5689;48.798;9.070;2023-12-20T15:42:06;5.80;99.90
11264;DHT22;5689;48.798;9.070;2023-12-20T15:44:34;5.80;99.90
11264;DHT22;5689;48.798;9.070;2023-12-20T15:47:03;5.80;99.90
11264;DHT22;5689;48.798;9.070;2023-12-20T15:49:31;5.70;99.90
11264;DHT22;5689;48.798;9.070;2023-12-20T15:51:59;5.60;99.90
11264;DHT22;5689;48.798;9.070;2023-12-20T15:54:30;5.60;99.90
11264;DHT22;5689;48.798;9.070;2023-12-20T15:56:58;5.60;99.90
11264;DHT22;5689;48.798;9.070;2023-12-20T15:59:27;5.50;99.90
11264;DHT22;5689;48.798;9.070;2023-12-20T16:01:56;5.60;99.90
11264;DHT22;5689;48.798;9.070;2023-12-20T16:04:24;5.70;99.90
11264;DHT22;5689;48.798;9.070;2023-12-20T16:06:52;5.70;99.90
11264;DHT22;5689;48.798;9.070;2023-12-20T16:09:20;5.60;99.90
11264;DHT22;5689;48.798;9.070;2023-12-20T16:11:48;5.60;99.90
11264;DHT22;5689;48.798;9.070;2023-12-20T16:14:16;5.60;99.90
11264;DHT22;5689;48.798;9.070;2023-12-20T16:16:48;5.60;99.90
11264;DHT22;5689;48.798;9.070;2023-12-20T16:19:16;5.50;99.90